Observations for Trim Market St
| Time | AQI | Temp °C | Hum % | Pres Pa | CO μg/m³ | H₂S μg/m³ | NO μg/m³ | NO₂ μg/m³ | O₃ μg/m³ | SO₂ μg/m³ | PM1 μg/m³ | PM2.5 μg/m³ | PM10 μg/m³ |
|---|---|---|---|---|---|---|---|---|---|---|---|---|---|
| Monday 24 August 2026 | |||||||||||||
| 09:31 | 1 | 19.9 | 64 | 56,270 | 0.46 | 0 | 3.5 | 15.52 | 36.73 | 0 | 2.85 | 5.29 | 10.83 |
| 09:30 | 1 | 19.8 | 64 | 56,251 | 0.44 | 0 | 3.41 | 20.19 | 37.71 | 0 | 2.14 | 3.32 | 5.55 |
| 09:29 | 1 | 19.6 | 64 | 56,268 | 0.48 | 0 | 3.5 | 39.15 | 39.52 | 0 | 4.99 | 7.76 | 12.81 |
| 09:28 | 1 | 19.4 | 64 | 56,320 | 0.4 | 0 | 3.34 | 13.32 | 34.13 | 0 | 4.99 | 9.74 | 14.79 |
| 09:27 | 1 | 19.3 | 64 | 56,396 | 0.4 | 0 | 1.59 | 11.94 | 32.88 | 0 | 7.84 | 11.72 | 20.07 |
| 09:26 | 1 | 19.2 | 64 | 56,449 | 0.39 | 0 | 1.81 | 13.83 | 33.93 | 0 | 8.55 | 12.7 | 18.74 |
| 09:25 | 1 | 19.1 | 64 | 56,511 | 0.4 | 0 | 2 | 11.54 | 31.13 | 0 | 7.13 | 8.75 | 14.12 |
| 09:24 | 1 | 19.1 | 65 | 56,563 | 0.45 | 0 | 1.63 | 10.61 | 29.05 | 0 | 6.41 | 10.71 | 16.09 |
| 09:23 | 1 | 19.1 | 65 | 56,589 | 0.48 | 0 | 2.11 | 12.91 | 28.97 | 0 | 4.28 | 8.24 | 12.8 |
| 09:22 | 1 | 19 | 65 | 56,607 | 0.38 | 0 | 2.05 | 10.82 | 29.51 | 0 | 6.41 | 8.73 | 12.79 |
| 09:21 | 1 | 19 | 65 | 56,630 | 0.41 | 0 | 1.96 | 9.86 | 28.15 | 0 | 4.28 | 9.21 | 12.78 |
| 09:20 | 1 | 19 | 65 | 56,632 | 0.48 | 0 | 1.99 | 10.3 | 28.5 | 0 | 4.28 | 7.23 | 11.46 |
| 09:19 | 1 | 18.9 | 65 | 56,624 | 0.48 | 0 | 2.56 | 10.8 | 27.57 | 0 | 4.28 | 6.73 | 9.5 |
| 09:17 | 1 | 18.8 | 66 | 56,616 | 0.5 | 0 | 2.05 | 10.75 | 25.31 | 0 | 3.56 | 5.73 | 8.18 |
| 09:16 | 1 | 18.8 | 66 | 56,610 | 0.53 | 0 | 2.05 | 11.12 | 25.77 | 0 | 2.85 | 5.72 | 9.49 |
| 09:15 | 1 | 18.8 | 66 | 56,604 | 0.54 | 0 | 2.09 | 12.24 | 24.77 | 0 | 2.14 | 4.24 | 6.88 |
| 09:13 | 1 | 18.7 | 66 | 56,596 | 0.55 | 0 | 3.12 | 11.85 | 24.92 | 0 | 2.85 | 4.72 | 8.83 |
| 09:12 | 1 | 18.7 | 66 | 56,576 | 0.57 | 0 | 4.17 | 12.06 | 22.08 | 0 | 1.43 | 4.22 | 6.23 |
| 09:11 | 1 | 18.7 | 66 | 56,548 | 0.6 | 0 | 4.48 | 12.83 | 21.93 | 0 | 4.28 | 7.15 | 11.42 |
| 09:10 | 1 | 18.7 | 67 | 56,501 | 0.65 | 0 | 5.03 | 17.65 | 18.92 | 0 | 7.84 | 9.6 | 14.65 |